sensor_id;sensor_type;location;lat;lon;timestamp;pressure;altitude;pressure_sealevel;temperature;humidity
31195;BME280;17819;36.316;-93.164;2022-08-19T00:00:08;114490.28;;;-146.31;63.33
31195;BME280;17819;36.316;-93.164;2022-08-19T00:02:13;114490.28;;;-146.31;64.19
31195;BME280;17819;36.316;-93.164;2022-08-19T00:04:17;114490.28;;;-146.31;63.42
31195;BME280;17819;36.316;-93.164;2022-08-19T00:06:21;114490.28;;;-146.31;64.85
31195;BME280;17819;36.316;-93.164;2022-08-19T00:08:25;114490.28;;;-146.31;65.22
31195;BME280;17819;36.316;-93.164;2022-08-19T00:10:29;114490.28;;;-146.31;69.69
31195;BME280;17819;36.316;-93.164;2022-08-19T00:12:32;114490.28;;;-146.31;68.79
31195;BME280;17819;36.316;-93.164;2022-08-19T00:14:44;114490.28;;;-146.31;69.58
31195;BME280;17819;36.316;-93.164;2022-08-19T00:16:54;114490.28;;;-146.31;68.46
31195;BME280;17819;36.316;-93.164;2022-08-19T00:18:58;114490.28;;;-146.31;68.07
31195;BME280;17819;36.316;-93.164;2022-08-19T00:21:02;114490.28;;;-146.31;68.78
31195;BME280;17819;36.316;-93.164;2022-08-19T00:23:12;114490.28;;;-146.31;68.76
31195;BME280;17819;36.316;-93.164;2022-08-19T00:25:16;114490.28;;;-146.31;69.74
31195;BME280;17819;36.316;-93.164;2022-08-19T00:27:34;114490.28;;;-146.31;72.15
31195;BME280;17819;36.316;-93.164;2022-08-19T00:29:45;114490.28;;;-146.31;72.09
31195;BME280;17819;36.316;-93.164;2022-08-19T00:31:53;114490.28;;;-146.31;72.25
31195;BME280;17819;36.316;-93.164;2022-08-19T00:33:59;114490.28;;;-146.31;73.99
31195;BME280;17819;36.316;-93.164;2022-08-19T00:36:05;114490.28;;;-146.31;75.07
31195;BME280;17819;36.316;-93.164;2022-08-19T00:38:09;114490.28;;;-146.31;76.93
31195;BME280;17819;36.316;-93.164;2022-08-19T00:40:13;114490.28;;;-146.31;76.72
31195;BME280;17819;36.316;-93.164;2022-08-19T00:42:17;114490.28;;;-146.31;77.67
31195;BME280;17819;36.316;-93.164;2022-08-19T00:44:23;114490.28;;;-146.31;76.49
31195;BME280;17819;36.316;-93.164;2022-08-19T00:46:28;114490.28;;;-146.31;78.92
31195;BME280;17819;36.316;-93.164;2022-08-19T00:48:32;114490.28;;;-146.31;79.17
31195;BME280;17819;36.316;-93.164;2022-08-19T00:50:38;114490.28;;;-146.31;79.22
31195;BME280;17819;36.316;-93.164;2022-08-19T00:52:53;114490.28;;;-146.31;80.92
31195;BME280;17819;36.316;-93.164;2022-08-19T00:54:57;114490.28;;;-146.31;81.69
31195;BME280;17819;36.316;-93.164;2022-08-19T00:57:02;114490.28;;;-146.31;82.00
31195;BME280;17819;36.316;-93.164;2022-08-19T00:59:09;114490.28;;;-146.31;81.72
31195;BME280;17819;36.316;-93.164;2022-08-19T01:01:13;114490.28;;;-146.31;82.93
31195;BME280;17819;36.316;-93.164;2022-08-19T01:03:18;114490.28;;;-146.31;81.77
31195;BME280;17819;36.316;-93.164;2022-08-19T01:05:26;114490.28;;;-146.31;82.42
31195;BME280;17819;36.316;-93.164;2022-08-19T01:07:32;114490.28;;;-146.31;79.98
31195;BME280;17819;36.316;-93.164;2022-08-19T01:09:42;114490.28;;;-146.31;80.29
31195;BME280;17819;36.316;-93.164;2022-08-19T01:11:46;114490.28;;;-146.31;81.17
31195;BME280;17819;36.316;-93.164;2022-08-19T01:13:51;114490.28;;;-146.31;80.90
31195;BME280;17819;36.316;-93.164;2022-08-19T01:15:56;114490.28;;;-146.31;83.11
31195;BME280;17819;36.316;-93.164;2022-08-19T01:18:02;114490.28;;;-146.31;83.38
31195;BME280;17819;36.316;-93.164;2022-08-19T01:20:16;114490.28;;;-146.31;83.31
31195;BME280;17819;36.316;-93.164;2022-08-19T01:24:32;114490.28;;;-146.31;83.72
31195;BME280;17819;36.316;-93.164;2022-08-19T01:26:47;114490.28;;;-146.31;83.52
31195;BME280;17819;36.316;-93.164;2022-08-19T01:28:52;114490.28;;;-146.31;85.90
31195;BME280;17819;36.316;-93.164;2022-08-19T01:31:02;114490.28;;;-146.31;86.51
31195;BME280;17819;36.316;-93.164;2022-08-19T01:33:09;114490.28;;;-146.31;87.24
31195;BME280;17819;36.316;-93.164;2022-08-19T01:35:13;114490.28;;;-146.31;87.24
31195;BME280;17819;36.316;-93.164;2022-08-19T01:37:17;114490.28;;;-146.31;86.81
31195;BME280;17819;36.316;-93.164;2022-08-19T01:39:28;114490.28;;;-146.31;86.21
31195;BME280;17819;36.316;-93.164;2022-08-19T01:41:31;114490.28;;;-146.31;86.30
31195;BME280;17819;36.316;-93.164;2022-08-19T01:43:36;114490.28;;;-146.31;87.39
31195;BME280;17819;36.316;-93.164;2022-08-19T01:46:00;114490.28;;;-146.31;87.57
31195;BME280;17819;36.316;-93.164;2022-08-19T01:48:07;114490.28;;;-146.31;87.56
31195;BME280;17819;36.316;-93.164;2022-08-19T01:50:12;114490.28;;;-146.31;89.20
31195;BME280;17819;36.316;-93.164;2022-08-19T01:52:16;114490.28;;;-146.31;89.72
31195;BME280;17819;36.316;-93.164;2022-08-19T01:54:20;114490.28;;;-146.31;88.79
31195;BME280;17819;36.316;-93.164;2022-08-19T01:56:29;114490.28;;;-146.31;90.18
31195;BME280;17819;36.316;-93.164;2022-08-19T01:58:43;114490.28;;;-146.31;90.90
31195;BME280;17819;36.316;-93.164;2022-08-19T02:00:52;114490.28;;;-146.31;92.17
31195;BME280;17819;36.316;-93.164;2022-08-19T02:02:56;114490.28;;;-146.31;92.47
31195;BME280;17819;36.316;-93.164;2022-08-19T02:05:03;114490.28;;;-146.31;92.14
31195;BME280;17819;36.316;-93.164;2022-08-19T02:07:11;114490.28;;;-146.31;91.90
31195;BME280;17819;36.316;-93.164;2022-08-19T02:09:17;114490.28;;;-146.31;92.26
31195;BME280;17819;36.316;-93.164;2022-08-19T02:11:25;114490.28;;;-146.31;92.86
31195;BME280;17819;36.316;-93.164;2022-08-19T02:13:29;114490.28;;;-146.31;93.35
31195;BME280;17819;36.316;-93.164;2022-08-19T02:15:34;114490.28;;;-146.31;92.26
31195;BME280;17819;36.316;-93.164;2022-08-19T02:17:38;114490.28;;;-146.31;93.89
31195;BME280;17819;36.316;-93.164;2022-08-19T02:19:42;114490.28;;;-146.31;93.88
31195;BME280;17819;36.316;-93.164;2022-08-19T02:21:46;114490.28;;;-146.31;94.60
31195;BME280;17819;36.316;-93.164;2022-08-19T02:23:50;114490.28;;;-146.31;96.22
31195;BME280;17819;36.316;-93.164;2022-08-19T02:25:53;114490.28;;;-146.31;93.47
31195;BME280;17819;36.316;-93.164;2022-08-19T02:27:57;114490.28;;;-146.31;93.93
31195;BME280;17819;36.316;-93.164;2022-08-19T02:30:02;114490.28;;;-146.31;94.51
31195;BME280;17819;36.316;-93.164;2022-08-19T02:32:06;114490.28;;;-146.31;94.85
31195;BME280;17819;36.316;-93.164;2022-08-19T02:34:10;114490.28;;;-146.31;94.29
31195;BME280;17819;36.316;-93.164;2022-08-19T02:36:14;114490.28;;;-146.31;94.60
31195;BME280;17819;36.316;-93.164;2022-08-19T02:38:22;114490.28;;;-146.31;95.94
31195;BME280;17819;36.316;-93.164;2022-08-19T02:40:30;114490.28;;;-146.31;97.11
31195;BME280;17819;36.316;-93.164;2022-08-19T02:42:39;114490.28;;;-146.31;97.86
31195;BME280;17819;36.316;-93.164;2022-08-19T02:44:44;114490.28;;;-146.31;97.82
31195;BME280;17819;36.316;-93.164;2022-08-19T02:46:47;114490.28;;;-146.31;98.64
31195;BME280;17819;36.316;-93.164;2022-08-19T02:48:54;114490.28;;;-146.31;99.32
31195;BME280;17819;36.316;-93.164;2022-08-19T02:51:00;114490.28;;;-146.31;99.01
31195;BME280;17819;36.316;-93.164;2022-08-19T02:53:05;114490.28;;;-146.31;99.62
31195;BME280;17819;36.316;-93.164;2022-08-19T02:55:11;114490.28;;;-146.31;99.70
31195;BME280;17819;36.316;-93.164;2022-08-19T02:57:18;114490.28;;;-146.31;100.00
31195;BME280;17819;36.316;-93.164;2022-08-19T02:59:22;114490.28;;;-146.31;100.00
31195;BME280;17819;36.316;-93.164;2022-08-19T03:01:27;114490.28;;;-146.31;100.00
31195;BME280;17819;36.316;-93.164;2022-08-19T03:03:32;114490.28;;;-146.31;100.00
31195;BME280;17819;36.316;-93.164;2022-08-19T03:05:36;114490.28;;;-146.31;100.00
31195;BME280;17819;36.316;-93.164;2022-08-19T03:07:57;114490.28;;;-146.31;100.00
31195;BME280;17819;36.316;-93.164;2022-08-19T03:10:00;114490.28;;;-146.31;100.00
31195;BME280;17819;36.316;-93.164;2022-08-19T03:12:04;114490.28;;;-146.31;100.00
31195;BME280;17819;36.316;-93.164;2022-08-19T03:14:09;114490.28;;;-146.31;100.00
31195;BME280;17819;36.316;-93.164;2022-08-19T03:16:12;114490.28;;;-146.31;100.00
31195;BME280;17819;36.316;-93.164;2022-08-19T03:18:16;114490.28;;;-146.31;100.00
31195;BME280;17819;36.316;-93.164;2022-08-19T03:20:20;114490.28;;;-146.31;100.00
31195;BME280;17819;36.316;-93.164;2022-08-19T03:22:23;114490.28;;;-146.31;100.00
31195;BME280;17819;36.316;-93.164;2022-08-19T03:24:37;114490.28;;;-146.31;100.00
31195;BME280;17819;36.316;-93.164;2022-08-19T03:26:42;114490.28;;;-146.31;100.00
31195;BME280;17819;36.316;-93.164;2022-08-19T03:28:46;114490.28;;;-146.31;100.00
31195;BME280;17819;36.316;-93.164;2022-08-19T03:31:04;114490.28;;;-146.31;100.00
31195;BME280;17819;36.316;-93.164;2022-08-19T03:33:28;114490.28;;;-146.31;100.00
31195;BME280;17819;36.316;-93.164;2022-08-19T03:35:33;114490.28;;;-146.31;100.00
31195;BME280;17819;36.316;-93.164;2022-08-19T03:37:39;114490.28;;;-146.31;100.00
31195;BME280;17819;36.316;-93.164;2022-08-19T03:39:43;114490.28;;;-146.31;100.00
31195;BME280;17819;36.316;-93.164;2022-08-19T03:41:50;114490.28;;;-146.31;100.00
31195;BME280;17819;36.316;-93.164;2022-08-19T03:44:19;114490.28;;;-146.31;100.00
31195;BME280;17819;36.316;-93.164;2022-08-19T03:46:28;114490.28;;;-146.31;100.00
31195;BME280;17819;36.316;-93.164;2022-08-19T03:48:32;114490.28;;;-146.31;100.00
31195;BME280;17819;36.316;-93.164;2022-08-19T03:50:40;114490.28;;;-146.31;100.00
31195;BME280;17819;36.316;-93.164;2022-08-19T03:52:47;114490.28;;;-146.31;100.00
31195;BME280;17819;36.316;-93.164;2022-08-19T03:54:52;114490.28;;;-146.31;100.00
31195;BME280;17819;36.316;-93.164;2022-08-19T03:56:58;114490.28;;;-146.31;100.00
31195;BME280;17819;36.316;-93.164;2022-08-19T03:59:02;114490.28;;;-146.31;100.00
31195;BME280;17819;36.316;-93.164;2022-08-19T04:01:08;114490.28;;;-146.31;100.00
31195;BME280;17819;36.316;-93.164;2022-08-19T04:03:12;114490.28;;;-146.31;100.00
31195;BME280;17819;36.316;-93.164;2022-08-19T04:05:16;114490.28;;;-146.31;100.00
31195;BME280;17819;36.316;-93.164;2022-08-19T04:07:25;114490.28;;;-146.31;100.00
31195;BME280;17819;36.316;-93.164;2022-08-19T04:09:29;114490.28;;;-146.31;100.00
31195;BME280;17819;36.316;-93.164;2022-08-19T04:11:34;114490.28;;;-146.31;100.00
31195;BME280;17819;36.316;-93.164;2022-08-19T04:13:45;114490.28;;;-146.31;100.00
31195;BME280;17819;36.316;-93.164;2022-08-19T04:15:48;114490.28;;;-146.31;100.00
31195;BME280;17819;36.316;-93.164;2022-08-19T04:17:52;114490.28;;;-146.31;100.00
31195;BME280;17819;36.316;-93.164;2022-08-19T04:19:56;114490.28;;;-146.31;100.00
31195;BME280;17819;36.316;-93.164;2022-08-19T04:22:01;114490.28;;;-146.31;100.00
31195;BME280;17819;36.316;-93.164;2022-08-19T04:24:08;114490.28;;;-146.31;100.00
31195;BME280;17819;36.316;-93.164;2022-08-19T04:26:16;114490.28;;;-146.31;100.00
31195;BME280;17819;36.316;-93.164;2022-08-19T04:28:21;114490.28;;;-146.31;100.00
31195;BME280;17819;36.316;-93.164;2022-08-19T04:30:26;114490.28;;;-146.31;100.00
31195;BME280;17819;36.316;-93.164;2022-08-19T04:32:30;114490.28;;;-146.31;100.00
31195;BME280;17819;36.316;-93.164;2022-08-19T04:34:34;114490.28;;;-146.31;100.00
31195;BME280;17819;36.316;-93.164;2022-08-19T04:36:59;114490.28;;;-146.31;100.00
31195;BME280;17819;36.316;-93.164;2022-08-19T04:39:17;114490.28;;;-146.31;100.00
31195;BME280;17819;36.316;-93.164;2022-08-19T04:41:21;114490.28;;;-146.31;100.00
31195;BME280;17819;36.316;-93.164;2022-08-19T04:43:43;114490.28;;;-146.31;100.00
31195;BME280;17819;36.316;-93.164;2022-08-19T04:45:52;114490.28;;;-146.31;100.00
31195;BME280;17819;36.316;-93.164;2022-08-19T04:48:01;114490.28;;;-146.31;100.00
31195;BME280;17819;36.316;-93.164;2022-08-19T04:50:26;114490.28;;;-146.31;100.00
31195;BME280;17819;36.316;-93.164;2022-08-19T04:52:33;114490.28;;;-146.31;100.00
31195;BME280;17819;36.316;-93.164;2022-08-19T04:54:37;114490.28;;;-146.31;100.00
31195;BME280;17819;36.316;-93.164;2022-08-19T04:56:41;114490.28;;;-146.31;100.00
31195;BME280;17819;36.316;-93.164;2022-08-19T04:58:46;114490.28;;;-146.31;100.00
31195;BME280;17819;36.316;-93.164;2022-08-19T05:00:50;114490.28;;;-146.31;100.00
31195;BME280;17819;36.316;-93.164;2022-08-19T05:02:54;114490.28;;;-146.31;100.00
31195;BME280;17819;36.316;-93.164;2022-08-19T05:04:58;114490.28;;;-146.31;100.00
31195;BME280;17819;36.316;-93.164;2022-08-19T05:07:03;114490.28;;;-146.31;100.00
31195;BME280;17819;36.316;-93.164;2022-08-19T05:09:07;114490.28;;;-146.31;100.00
31195;BME280;17819;36.316;-93.164;2022-08-19T05:11:15;114490.28;;;-146.31;100.00
31195;BME280;17819;36.316;-93.164;2022-08-19T05:13:24;114490.28;;;-146.31;100.00
31195;BME280;17819;36.316;-93.164;2022-08-19T05:15:31;114490.28;;;-146.31;100.00
31195;BME280;17819;36.316;-93.164;2022-08-19T05:17:35;114490.28;;;-146.31;100.00
31195;BME280;17819;36.316;-93.164;2022-08-19T05:19:40;114490.28;;;-146.31;100.00
31195;BME280;17819;36.316;-93.164;2022-08-19T05:22:02;114490.28;;;-146.31;100.00
31195;BME280;17819;36.316;-93.164;2022-08-19T05:24:27;114490.28;;;-146.31;100.00
31195;BME280;17819;36.316;-93.164;2022-08-19T05:26:32;114490.28;;;-146.31;100.00
31195;BME280;17819;36.316;-93.164;2022-08-19T05:28:35;114490.28;;;-146.31;100.00
31195;BME280;17819;36.316;-93.164;2022-08-19T05:30:39;114490.28;;;-146.31;100.00
31195;BME280;17819;36.316;-93.164;2022-08-19T05:32:48;114490.28;;;-146.31;100.00
31195;BME280;17819;36.316;-93.164;2022-08-19T05:34:55;114490.28;;;-146.31;100.00
31195;BME280;17819;36.316;-93.164;2022-08-19T05:37:01;114490.28;;;-146.31;100.00
31195;BME280;17819;36.316;-93.164;2022-08-19T05:39:19;114490.28;;;-146.31;100.00
31195;BME280;17819;36.316;-93.164;2022-08-19T05:41:22;114490.28;;;-146.31;100.00
31195;BME280;17819;36.316;-93.164;2022-08-19T05:43:32;114490.28;;;-146.31;100.00
31195;BME280;17819;36.316;-93.164;2022-08-19T05:45:39;114490.28;;;-146.31;100.00
31195;BME280;17819;36.316;-93.164;2022-08-19T05:47:44;114490.28;;;-146.31;100.00
31195;BME280;17819;36.316;-93.164;2022-08-19T05:49:49;114490.28;;;-146.31;100.00
31195;BME280;17819;36.316;-93.164;2022-08-19T05:58:31;114490.28;;;-146.31;100.00
31195;BME280;17819;36.316;-93.164;2022-08-19T06:00:36;114490.28;;;-146.31;100.00
31195;BME280;17819;36.316;-93.164;2022-08-19T06:02:41;114490.28;;;-146.31;100.00
31195;BME280;17819;36.316;-93.164;2022-08-19T06:04:45;114490.28;;;-146.31;100.00
31195;BME280;17819;36.316;-93.164;2022-08-19T06:06:50;114490.28;;;-146.31;100.00
31195;BME280;17819;36.316;-93.164;2022-08-19T06:08:54;114490.28;;;-146.31;100.00
31195;BME280;17819;36.316;-93.164;2022-08-19T06:11:11;114490.28;;;-146.31;100.00
31195;BME280;17819;36.316;-93.164;2022-08-19T06:13:15;114490.28;;;-146.31;100.00
31195;BME280;17819;36.316;-93.164;2022-08-19T06:15:20;114490.28;;;-146.31;100.00
31195;BME280;17819;36.316;-93.164;2022-08-19T06:17:29;114490.28;;;-146.31;100.00
31195;BME280;17819;36.316;-93.164;2022-08-19T06:19:34;114490.28;;;-146.31;100.00
31195;BME280;17819;36.316;-93.164;2022-08-19T06:21:44;114490.28;;;-146.31;100.00
31195;BME280;17819;36.316;-93.164;2022-08-19T06:23:48;114490.28;;;-146.31;100.00
31195;BME280;17819;36.316;-93.164;2022-08-19T06:25:53;114490.28;;;-146.31;100.00
31195;BME280;17819;36.316;-93.164;2022-08-19T06:27:58;114490.28;;;-146.31;100.00
31195;BME280;17819;36.316;-93.164;2022-08-19T06:30:17;114203.88;;;-146.31;100.00
31195;BME280;17819;36.316;-93.164;2022-08-19T06:32:21;114133.78;;;-146.31;100.00
31195;BME280;17819;36.316;-93.164;2022-08-19T06:34:25;113797.34;;;-146.31;100.00
31195;BME280;17819;36.316;-93.164;2022-08-19T06:36:31;113835.41;;;-146.31;100.00
31195;BME280;17819;36.316;-93.164;2022-08-19T06:38:37;113681.19;;;-146.31;100.00
31195;BME280;17819;36.316;-93.164;2022-08-19T06:40:41;113523.00;;;-146.31;100.00
31195;BME280;17819;36.316;-93.164;2022-08-19T06:42:49;113887.47;;;-146.31;100.00
31195;BME280;17819;36.316;-93.164;2022-08-19T06:44:56;114157.81;;;-146.31;100.00
31195;BME280;17819;36.316;-93.164;2022-08-19T06:47:05;114388.13;;;-146.31;100.00
31195;BME280;17819;36.316;-93.164;2022-08-19T06:49:16;114490.28;;;-146.31;100.00
31195;BME280;17819;36.316;-93.164;2022-08-19T06:51:21;114490.28;;;-146.31;100.00
31195;BME280;17819;36.316;-93.164;2022-08-19T06:53:25;114490.28;;;-146.31;100.00
31195;BME280;17819;36.316;-93.164;2022-08-19T06:55:31;114490.28;;;-146.31;100.00
31195;BME280;17819;36.316;-93.164;2022-08-19T06:57:37;114490.28;;;-146.31;100.00
31195;BME280;17819;36.316;-93.164;2022-08-19T06:59:41;114300.00;;;-146.31;100.00
31195;BME280;17819;36.316;-93.164;2022-08-19T07:01:46;114057.69;;;-146.31;100.00
31195;BME280;17819;36.316;-93.164;2022-08-19T07:03:51;113703.22;;;-146.31;100.00
31195;BME280;17819;36.316;-93.164;2022-08-19T07:05:54;113358.81;;;-146.31;100.00
31195;BME280;17819;36.316;-93.164;2022-08-19T07:07:59;112714.13;;;-146.31;100.00
31195;BME280;17819;36.316;-93.164;2022-08-19T07:10:06;110818.72;;;-146.31;100.00
31195;BME280;17819;36.316;-93.164;2022-08-19T07:12:10;109464.25;;;-146.31;100.00
31195;BME280;17819;36.316;-93.164;2022-08-19T07:14:17;108838.19;;;-146.31;100.00
31195;BME280;17819;36.316;-93.164;2022-08-19T07:16:22;108472.19;;;-146.31;100.00
31195;BME280;17819;36.316;-93.164;2022-08-19T07:18:30;107810.28;;;-146.31;100.00
31195;BME280;17819;36.316;-93.164;2022-08-19T07:20:36;106864.59;;;-146.31;100.00
31195;BME280;17819;36.316;-93.164;2022-08-19T07:22:40;106700.69;;;-146.31;100.00
31195;BME280;17819;36.316;-93.164;2022-08-19T07:24:43;106726.66;;;-146.31;100.00
31195;BME280;17819;36.316;-93.164;2022-08-19T07:26:53;105597.38;;;-146.31;100.00
31195;BME280;17819;36.316;-93.164;2022-08-19T07:28:58;103197.91;;;-146.31;100.00
31195;BME280;17819;36.316;-93.164;2022-08-19T07:31:09;102217.38;;;-146.31;100.00
31195;BME280;17819;36.316;-93.164;2022-08-19T07:33:16;101155.22;;;-146.31;100.00
31195;BME280;17819;36.316;-93.164;2022-08-19T07:35:21;101416.72;;;-146.31;100.00
31195;BME280;17819;36.316;-93.164;2022-08-19T07:37:24;101364.81;;;-146.31;100.00
31195;BME280;17819;36.316;-93.164;2022-08-19T07:39:35;100604.28;;;-146.31;100.00
31195;BME280;17819;36.316;-93.164;2022-08-19T07:41:39;100308.88;;;-146.31;100.00
31195;BME280;17819;36.316;-93.164;2022-08-19T07:43:43;98618.72;;;-146.31;100.00
31195;BME280;17819;36.316;-93.164;2022-08-19T07:45:51;97080.84;;;-146.31;100.00
31195;BME280;17819;36.316;-93.164;2022-08-19T07:47:56;97415.91;;;-146.31;100.00
31195;BME280;17819;36.316;-93.164;2022-08-19T07:50:00;97601.38;;;-146.31;100.00
31195;BME280;17819;36.316;-93.164;2022-08-19T07:52:09;97814.81;;;-146.31;100.00
31195;BME280;17819;36.316;-93.164;2022-08-19T07:54:13;95880.47;;;-146.31;100.00
31195;BME280;17819;36.316;-93.164;2022-08-19T07:56:17;95740.91;;;-146.31;100.00
31195;BME280;17819;36.316;-93.164;2022-08-19T07:58:22;95738.94;;;-146.31;100.00
31195;BME280;17819;36.316;-93.164;2022-08-19T08:00:26;95114.97;;;-146.31;100.00
31195;BME280;17819;36.316;-93.164;2022-08-19T08:02:29;95061.16;;;-146.31;100.00
31195;BME280;17819;36.316;-93.164;2022-08-19T08:08:09;87951.41;;;-146.31;100.00
31195;BME280;17819;36.316;-93.164;2022-08-19T08:10:49;84872.41;;;-146.31;100.00
31195;BME280;17819;36.316;-93.164;2022-08-19T08:12:58;83145.00;;;-146.31;100.00
31195;BME280;17819;36.316;-93.164;2022-08-19T08:15:13;81330.91;;;-146.31;100.00
31195;BME280;17819;36.316;-93.164;2022-08-19T08:17:26;81324.94;;;-146.31;100.00
31195;BME280;17819;36.316;-93.164;2022-08-19T08:19:51;80180.91;;;-146.31;100.00
31195;BME280;17819;36.316;-93.164;2022-08-19T08:21:55;78425.72;;;-146.31;100.00
31195;BME280;17819;36.316;-93.164;2022-08-19T08:23:59;78602.38;;;-146.31;100.00
31195;BME280;17819;36.316;-93.164;2022-08-19T08:26:04;78288.75;;;-146.31;100.00
31195;BME280;17819;36.316;-93.164;2022-08-19T08:28:08;78306.63;;;-146.31;100.00
31195;BME280;17819;36.316;-93.164;2022-08-19T08:30:20;78298.66;;;-146.31;100.00
31195;BME280;17819;36.316;-93.164;2022-08-19T08:32:25;78550.78;;;-146.31;100.00
31195;BME280;17819;36.316;-93.164;2022-08-19T08:34:28;78461.44;;;-146.31;100.00
31195;BME280;17819;36.316;-93.164;2022-08-19T08:36:35;78310.59;;;-146.31;100.00
31195;BME280;17819;36.316;-93.164;2022-08-19T08:38:39;77915.59;;;-146.31;100.00
31195;BME280;17819;36.316;-93.164;2022-08-19T08:40:45;77921.53;;;-146.31;100.00
31195;BME280;17819;36.316;-93.164;2022-08-19T08:45:12;74247.34;;;-146.31;100.00
31195;BME280;17819;36.316;-93.164;2022-08-19T08:47:18;72689.03;;;-146.31;100.00
31195;BME280;17819;36.316;-93.164;2022-08-19T08:49:39;72696.94;;;-146.31;100.00
31195;BME280;17819;36.316;-93.164;2022-08-19T08:51:48;73600.94;;;-146.31;100.00
31195;BME280;17819;36.316;-93.164;2022-08-19T08:54:02;74501.19;;;-146.31;100.00
31195;BME280;17819;36.316;-93.164;2022-08-19T08:56:08;82719.72;;;-146.31;100.00
31195;BME280;17819;36.316;-93.164;2022-08-19T08:58:20;90570.78;;;-146.31;100.00
31195;BME280;17819;36.316;-93.164;2022-08-19T09:00:35;87374.41;;;-146.31;100.00
31195;BME280;17819;36.316;-93.164;2022-08-19T09:02:40;85128.91;;;-146.31;100.00
31195;BME280;17819;36.316;-93.164;2022-08-19T09:04:44;79557.34;;;-146.31;100.00
31195;BME280;17819;36.316;-93.164;2022-08-19T09:09:10;71529.59;;;-146.31;100.00
31195;BME280;17819;36.316;-93.164;2022-08-19T09:16:02;60609.84;;;-146.31;100.00
31195;BME280;17819;36.316;-93.164;2022-08-19T09:18:09;58288.44;;;-146.31;100.00
31195;BME280;17819;36.316;-93.164;2022-08-19T09:20:23;56983.16;;;-146.31;100.00
31195;BME280;17819;36.316;-93.164;2022-08-19T09:22:30;57052.25;;;-146.31;100.00
31195;BME280;17819;36.316;-93.164;2022-08-19T09:24:34;56941.69;;;-146.31;100.00
31195;BME280;17819;36.316;-93.164;2022-08-19T09:26:38;52750.28;;;-146.31;100.00
31195;BME280;17819;36.316;-93.164;2022-08-19T09:28:54;51314.69;;;-146.31;100.00
31195;BME280;17819;36.316;-93.164;2022-08-19T09:30:59;50977.56;;;-146.31;100.00
31195;BME280;17819;36.316;-93.164;2022-08-19T09:33:03;50766.63;;;-146.31;100.00
31195;BME280;17819;36.316;-93.164;2022-08-19T09:35:08;50388.16;;;-146.31;100.00
31195;BME280;17819;36.316;-93.164;2022-08-19T09:37:13;50252.16;;;-146.31;100.00
31195;BME280;17819;36.316;-93.164;2022-08-19T09:39:17;50206.81;;;-146.31;100.00
31195;BME280;17819;36.316;-93.164;2022-08-19T09:41:25;50216.66;;;-146.31;100.00
31195;BME280;17819;36.316;-93.164;2022-08-19T09:43:31;50177.25;;;-146.31;100.00
31195;BME280;17819;36.316;-93.164;2022-08-19T09:45:48;50112.19;;;-146.31;100.00
31195;BME280;17819;36.316;-93.164;2022-08-19T09:47:52;50147.69;;;-146.31;100.00
31195;BME280;17819;36.316;-93.164;2022-08-19T09:49:57;50238.34;;;-146.31;100.00
31195;BME280;17819;36.316;-93.164;2022-08-19T09:52:01;50246.22;;;-146.31;100.00
31195;BME280;17819;36.316;-93.164;2022-08-19T09:54:05;50285.66;;;-146.31;100.00
31195;BME280;17819;36.316;-93.164;2022-08-19T09:56:12;50260.03;;;-146.31;100.00
31195;BME280;17819;36.316;-93.164;2022-08-19T09:58:20;50275.81;;;-146.31;100.00
31195;BME280;17819;36.316;-93.164;2022-08-19T10:00:31;50293.53;;;-146.31;100.00
31195;BME280;17819;36.316;-93.164;2022-08-19T10:02:35;50224.56;;;-146.31;100.00
31195;BME280;17819;36.316;-93.164;2022-08-19T10:04:40;50204.84;;;-146.31;100.00
31195;BME280;17819;36.316;-93.164;2022-08-19T10:07:03;50126.00;;;-146.31;100.00
31195;BME280;17819;36.316;-93.164;2022-08-19T10:09:09;49712.13;;;-146.31;100.00
31195;BME280;17819;36.316;-93.164;2022-08-19T10:11:14;49676.63;;;-146.31;100.00
31195;BME280;17819;36.316;-93.164;2022-08-19T10:13:37;49684.53;;;-146.31;100.00
31195;BME280;17819;36.316;-93.164;2022-08-19T10:15:42;49682.56;;;-146.31;100.00
31195;BME280;17819;36.316;-93.164;2022-08-19T10:17:49;49658.91;;;-146.31;100.00
31195;BME280;17819;36.316;-93.164;2022-08-19T10:19:59;49639.19;;;-146.31;100.00
31195;BME280;17819;36.316;-93.164;2022-08-19T10:22:04;49668.75;;;-146.31;100.00
31195;BME280;17819;36.316;-93.164;2022-08-19T10:24:13;49678.59;;;-146.31;100.00
31195;BME280;17819;36.316;-93.164;2022-08-19T10:26:30;49696.34;;;-146.31;100.00
31195;BME280;17819;36.316;-93.164;2022-08-19T10:28:35;49702.25;;;-146.31;100.00
31195;BME280;17819;36.316;-93.164;2022-08-19T10:30:48;49702.25;;;-146.31;100.00
31195;BME280;17819;36.316;-93.164;2022-08-19T10:32:52;49702.25;;;-146.31;100.00
31195;BME280;17819;36.316;-93.164;2022-08-19T10:34:56;49672.69;;;-146.31;100.00
31195;BME280;17819;36.316;-93.164;2022-08-19T10:37:00;49670.72;;;-146.31;100.00
31195;BME280;17819;36.316;-93.164;2022-08-19T10:39:05;49658.91;;;-146.31;100.00
31195;BME280;17819;36.316;-93.164;2022-08-19T10:41:14;49651.03;;;-146.31;100.00
31195;BME280;17819;36.316;-93.164;2022-08-19T10:43:18;49645.09;;;-146.31;100.00
31195;BME280;17819;36.316;-93.164;2022-08-19T10:45:23;49664.81;;;-146.31;100.00
31195;BME280;17819;36.316;-93.164;2022-08-19T10:47:29;49662.84;;;-146.31;100.00
31195;BME280;17819;36.316;-93.164;2022-08-19T10:49:33;49670.72;;;-146.31;100.00